PWSweather.com
Personal Weather Stations
Station Observations
KMAMEDFI2
Medfield, MA 02052

Medfield, MA 02052

Lat: 42.1900822, Lon: -71.3296889

Elevation: 138

Station Type: Rainwise WS MK-III

http://www.medfieldweather.com

High Low Average
Temperature 68.3°F20.2°F 31.5°F-0.3°F 51.3°F10.7°F
Dew Point 43.4°F6.3°F 25.1°F-3.8°F 35.5°F1.9°F
Winds 8.1 mph SE13.0 mph SE Calm Calm 2.5 mph 4.0 mph
Wind Gusts 18.4 mph29.6 mph -- 3.9 mph6.3 mph
Humidity 96% 24% 59%
Pressure 30.46 in1031.50 in 30.28 in1025.40 in -
Precipitation 0.00 in0.00 in - -
Hour Temp Dew Point Humidity Winds Wind Gusts Pressure Precip Precip Rate Daily Precip Total
12:00 AM 38.4°F3.6°C 26.1°F-3.3°C 61% Calm Calm -- 30.43 in1030.5 mb - 0.00 in0.0 mm 0.00 in0.0 mm
12:10 AM 38.6°F3.7°C 26.7°F-2.9°C 62% Calm Calm -- 30.42 in1030.1 mb - 0.00 in0.0 mm 0.00 in0.0 mm
12:20 AM 37.8°F3.2°C 27.1°F-2.7°C 65% Calm Calm -- 30.42 in1030.1 mb - 0.00 in0.0 mm 0.00 in0.0 mm
12:30 AM 37.3°F2.9°C 26.2°F-3.2°C 64% Calm Calm -- 30.42 in1030.1 mb - 0.00 in0.0 mm 0.00 in0.0 mm
12:40 AM 37.9°F3.3°C 26.8°F-2.9°C 64% 2.3 mph ESE3.7 kmh ESE 2.3 mph3.7 kmh 30.42 in1030.1 mb - 0.00 in0.0 mm 0.00 in0.0 mm
12:50 AM 38.0°F3.3°C 26.5°F-3.1°C 63% 2.3 mph ESE3.7 kmh ESE 2.3 mph3.7 kmh 30.41 in1029.8 mb - 0.00 in0.0 mm 0.00 in0.0 mm
01:00 AM 37.9°F3.3°C 27.1°F-2.7°C 65% 2.3 mph ESE3.7 kmh ESE 1.2 mph1.9 kmh 30.41 in1029.8 mb - 0.00 in0.0 mm 0.00 in0.0 mm
01:10 AM 37.3°F2.9°C 26.6°F-3.0°C 65% Calm Calm -- 30.41 in1029.8 mb - 0.00 in0.0 mm 0.00 in0.0 mm
01:20 AM 36.8°F2.7°C 26.1°F-3.3°C 65% Calm Calm -- 30.40 in1029.5 mb - 0.00 in0.0 mm 0.00 in0.0 mm
01:30 AM 36.4°F2.4°C 25.8°F-3.4°C 65% Calm Calm -- 30.40 in1029.5 mb - 0.00 in0.0 mm 0.00 in0.0 mm
01:40 AM 36.3°F2.4°C 26.0°F-3.3°C 66% Calm Calm -- 30.40 in1029.5 mb - 0.00 in0.0 mm 0.00 in0.0 mm
01:50 AM 35.7°F2.1°C 25.1°F-3.8°C 65% Calm Calm -- 30.39 in1029.1 mb - 0.00 in0.0 mm 0.00 in0.0 mm
02:00 AM 35.4°F1.9°C 25.9°F-3.4°C 68% Calm Calm -- 30.39 in1029.1 mb - 0.00 in0.0 mm 0.00 in0.0 mm
02:10 AM 35.0°F1.7°C 25.9°F-3.4°C 69% Calm Calm -- 30.39 in1029.1 mb - 0.00 in0.0 mm 0.00 in0.0 mm
02:20 AM 34.9°F1.6°C 26.8°F-2.9°C 72% Calm Calm -- 30.39 in1029.1 mb - 0.00 in0.0 mm 0.00 in0.0 mm
02:30 AM 35.1°F1.7°C 27.0°F-2.8°C 72% 2.3 mph ESE3.7 kmh ESE 1.2 mph1.9 kmh 30.39 in1029.1 mb - 0.00 in0.0 mm 0.00 in0.0 mm
02:40 AM 35.1°F1.7°C 27.3°F-2.6°C 73% Calm Calm -- 30.39 in1029.1 mb - 0.00 in0.0 mm 0.00 in0.0 mm
02:50 AM 34.4°F1.3°C 27.3°F-2.6°C 75% Calm Calm -- 30.38 in1028.8 mb - 0.00 in0.0 mm 0.00 in0.0 mm
03:00 AM 34.8°F1.6°C 27.7°F-2.4°C 75% Calm Calm -- 30.38 in1028.8 mb - 0.00 in0.0 mm 0.00 in0.0 mm
03:10 AM 34.6°F1.4°C 27.5°F-2.5°C 75% Calm Calm -- 30.38 in1028.8 mb - 0.00 in0.0 mm 0.00 in0.0 mm
03:20 AM 34.1°F1.2°C 28.0°F-2.2°C 78% Calm Calm -- 30.38 in1028.8 mb - 0.00 in0.0 mm 0.00 in0.0 mm
03:30 AM 34.5°F1.4°C 28.7°F-1.8°C 79% Calm Calm -- 30.38 in1028.8 mb - 0.00 in0.0 mm 0.00 in0.0 mm
03:40 AM 34.0°F1.1°C 28.8°F-1.8°C 81% Calm Calm -- 30.38 in1028.8 mb - 0.00 in0.0 mm 0.00 in0.0 mm
03:50 AM 33.8°F1.0°C 29.2°F-1.6°C 83% Calm Calm -- 30.38 in1028.8 mb - 0.00 in0.0 mm 0.00 in0.0 mm
04:00 AM 33.2°F0.7°C 29.2°F-1.6°C 85% Calm Calm -- 30.38 in1028.8 mb - 0.00 in0.0 mm 0.00 in0.0 mm
04:10 AM 33.5°F0.8°C 29.8°F-1.2°C 86% Calm Calm -- 30.38 in1028.8 mb - 0.00 in0.0 mm 0.00 in0.0 mm
04:20 AM 33.9°F1.1°C 30.4°F-0.9°C 87% Calm Calm -- 30.38 in1028.8 mb - 0.00 in0.0 mm 0.00 in0.0 mm
04:30 AM 33.8°F1.0°C 30.1°F-1.1°C 86% Calm Calm -- 30.37 in1028.4 mb - 0.00 in0.0 mm 0.00 in0.0 mm
04:40 AM 32.7°F0.4°C 29.6°F-1.3°C 88% Calm Calm -- 30.37 in1028.4 mb - 0.00 in0.0 mm 0.00 in0.0 mm
04:50 AM 32.7°F0.4°C 30.3°F-0.9°C 91% Calm Calm -- 30.36 in1028.1 mb - 0.00 in0.0 mm 0.00 in0.0 mm
05:00 AM 32.7°F0.4°C 30.6°F-0.8°C 92% Calm Calm -- 30.36 in1028.1 mb - 0.00 in0.0 mm 0.00 in0.0 mm
05:10 AM 32.1°F0.1°C 30.6°F-0.8°C 94% Calm Calm -- 30.36 in1028.1 mb - 0.00 in0.0 mm 0.00 in0.0 mm
05:20 AM 31.9°F-0.1°C 30.6°F-0.8°C 95% Calm Calm -- 30.36 in1028.1 mb - 0.00 in0.0 mm 0.00 in0.0 mm
05:30 AM 31.7°F-0.2°C 30.4°F-0.9°C 95% Calm Calm -- 30.36 in1028.1 mb - 0.00 in0.0 mm 0.00 in0.0 mm
05:40 AM 31.9°F-0.1°C 30.6°F-0.8°C 95% Calm Calm -- 30.36 in1028.1 mb - 0.00 in0.0 mm 0.00 in0.0 mm
05:50 AM 31.9°F-0.1°C 30.6°F-0.8°C 95% Calm Calm -- 30.36 in1028.1 mb - 0.00 in0.0 mm 0.00 in0.0 mm
06:00 AM 32.0°F0.0°C 30.7°F-0.7°C 95% Calm Calm -- 30.36 in1028.1 mb - 0.00 in0.0 mm 0.00 in0.0 mm
06:10 AM 31.9°F-0.1°C 30.6°F-0.8°C 95% Calm Calm -- 30.36 in1028.1 mb - 0.00 in0.0 mm 0.00 in0.0 mm
06:20 AM 31.5°F-0.3°C 30.2°F-1.0°C 95% Calm Calm -- 30.37 in1028.4 mb - 0.00 in0.0 mm 0.00 in0.0 mm
06:30 AM 31.6°F-0.2°C 30.3°F-0.9°C 95% Calm Calm -- 30.37 in1028.4 mb - 0.00 in0.0 mm 0.00 in0.0 mm
06:40 AM 32.3°F0.2°C 31.0°F-0.6°C 95% Calm Calm -- 30.37 in1028.4 mb - 0.00 in0.0 mm 0.00 in0.0 mm
06:50 AM 33.4°F0.8°C 32.1°F0.1°C 95% Calm Calm -- 30.37 in1028.4 mb - 0.00 in0.0 mm 0.00 in0.0 mm
07:00 AM 34.5°F1.4°C 33.2°F0.7°C 95% Calm Calm -- 30.38 in1028.8 mb - 0.00 in0.0 mm 0.00 in0.0 mm
07:10 AM 36.3°F2.4°C 35.0°F1.7°C 95% 1.2 mph ESE1.9 kmh ESE 2.3 mph3.7 kmh 30.38 in1028.8 mb - 0.00 in0.0 mm 0.00 in0.0 mm
07:20 AM 38.9°F3.8°C 37.9°F3.3°C 96% Calm Calm -- 30.38 in1028.8 mb - 0.00 in0.0 mm 0.00 in0.0 mm
07:30 AM 40.9°F4.9°C 38.2°F3.4°C 90% 2.3 mph ESE3.7 kmh ESE 2.3 mph3.7 kmh 30.39 in1029.1 mb - 0.00 in0.0 mm 0.00 in0.0 mm
07:40 AM 43.1°F6.2°C 40.1°F4.5°C 89% 1.2 mph S1.9 kmh S 2.3 mph3.7 kmh 30.39 in1029.1 mb - 0.00 in0.0 mm 0.00 in0.0 mm
07:50 AM 45.9°F7.7°C 41.3°F5.2°C 84% 4.6 mph WSW7.4 kmh WSW 6.9 mph11.1 kmh 30.40 in1029.5 mb - 0.00 in0.0 mm 0.00 in0.0 mm
08:00 AM 47.5°F8.6°C 41.6°F5.3°C 80% 2.3 mph WNW3.7 kmh WNW 6.9 mph11.1 kmh 30.40 in1029.5 mb - 0.00 in0.0 mm 0.00 in0.0 mm
08:10 AM 48.9°F9.4°C 41.3°F5.2°C 75% 1.2 mph SSE1.9 kmh SSE 2.3 mph3.7 kmh 30.41 in1029.8 mb - 0.00 in0.0 mm 0.00 in0.0 mm
08:20 AM 50.3°F10.2°C 40.9°F4.9°C 70% 2.3 mph W3.7 kmh W 2.3 mph3.7 kmh 30.42 in1030.1 mb - 0.00 in0.0 mm 0.00 in0.0 mm
08:30 AM 51.3°F10.7°C 41.1°F5.1°C 68% 3.5 mph SE5.6 kmh SE 4.6 mph7.4 kmh 30.42 in1030.1 mb - 0.00 in0.0 mm 0.00 in0.0 mm
08:40 AM 52.7°F11.5°C 40.4°F4.7°C 63% 3.5 mph WSW5.6 kmh WSW 5.8 mph9.3 kmh 30.43 in1030.5 mb - 0.00 in0.0 mm 0.00 in0.0 mm
08:50 AM 53.9°F12.2°C 39.9°F4.4°C 59% 3.5 mph S5.6 kmh S 5.8 mph9.3 kmh 30.44 in1030.8 mb - 0.00 in0.0 mm 0.00 in0.0 mm
09:00 AM 54.8°F12.7°C 38.9°F3.8°C 55% 3.5 mph WSW5.6 kmh WSW 5.8 mph9.3 kmh 30.44 in1030.8 mb - 0.00 in0.0 mm 0.00 in0.0 mm
09:10 AM 55.9°F13.3°C 39.0°F3.9°C 53% 2.3 mph S3.7 kmh S 4.6 mph7.4 kmh 30.44 in1030.8 mb - 0.00 in0.0 mm 0.00 in0.0 mm
09:20 AM 56.6°F13.7°C 39.2°F4.0°C 52% 2.3 mph E3.7 kmh E 2.3 mph3.7 kmh 30.44 in1030.8 mb - 0.00 in0.0 mm 0.00 in0.0 mm
09:30 AM 57.8°F14.3°C 38.3°F3.5°C 48% 4.6 mph WSW7.4 kmh WSW 8.1 mph13.0 kmh 30.44 in1030.8 mb - 0.00 in0.0 mm 0.00 in0.0 mm
09:40 AM 58.4°F14.7°C 35.9°F2.2°C 43% 3.5 mph SW5.6 kmh SW 5.8 mph9.3 kmh 30.44 in1030.8 mb - 0.00 in0.0 mm 0.00 in0.0 mm
09:50 AM 59.9°F15.5°C 35.5°F1.9°C 40% 4.6 mph WSW7.4 kmh WSW 8.1 mph13.0 kmh 30.44 in1030.8 mb - 0.00 in0.0 mm 0.00 in0.0 mm
10:00 AM 60.7°F15.9°C 32.8°F0.4°C 35% 3.5 mph WSW5.6 kmh WSW 8.1 mph13.0 kmh 30.45 in1031.2 mb - 0.00 in0.0 mm 0.00 in0.0 mm
10:10 AM 61.9°F16.6°C 30.9°F-0.6°C 31% 2.3 mph WSW3.7 kmh WSW 12.7 mph20.4 kmh 30.46 in1031.5 mb - 0.00 in0.0 mm 0.00 in0.0 mm
10:20 AM 62.1°F16.7°C 31.0°F-0.6°C 31% 3.5 mph SW5.6 kmh SW 5.8 mph9.3 kmh 30.46 in1031.5 mb - 0.00 in0.0 mm 0.00 in0.0 mm
10:30 AM 62.9°F17.2°C 30.9°F-0.6°C 30% 3.5 mph SSE5.6 kmh SSE 5.8 mph9.3 kmh 30.46 in1031.5 mb - 0.00 in0.0 mm 0.00 in0.0 mm
10:40 AM 63.2°F17.3°C 32.0°F0.0°C 31% 4.6 mph SE7.4 kmh SE 6.9 mph11.1 kmh 30.46 in1031.5 mb - 0.00 in0.0 mm 0.00 in0.0 mm
10:50 AM 63.4°F17.4°C 29.7°F-1.3°C 28% 4.6 mph E7.4 kmh E 5.8 mph9.3 kmh 30.46 in1031.5 mb - 0.00 in0.0 mm 0.00 in0.0 mm
11:00 AM 63.3°F17.4°C 28.7°F-1.8°C 27% 6.9 mph S11.1 kmh S 9.2 mph14.8 kmh 30.46 in1031.5 mb - 0.00 in0.0 mm 0.00 in0.0 mm
11:10 AM 64.0°F17.8°C 31.1°F-0.5°C 29% 4.6 mph S7.4 kmh S 4.6 mph7.4 kmh 30.45 in1031.2 mb - 0.00 in0.0 mm 0.00 in0.0 mm
11:20 AM 64.6°F18.1°C 31.6°F-0.2°C 29% 3.5 mph SE5.6 kmh SE 5.8 mph9.3 kmh 30.45 in1031.2 mb - 0.00 in0.0 mm 0.00 in0.0 mm
11:30 AM 64.7°F18.2°C 29.0°F-1.7°C 26% 2.3 mph S3.7 kmh S 2.3 mph3.7 kmh 30.44 in1030.8 mb - 0.00 in0.0 mm 0.00 in0.0 mm
11:40 AM 65.4°F18.6°C 31.4°F-0.3°C 28% 4.6 mph WSW7.4 kmh WSW 5.8 mph9.3 kmh 30.44 in1030.8 mb - 0.00 in0.0 mm 0.00 in0.0 mm
11:50 AM 65.6°F18.7°C 30.6°F-0.8°C 27% 3.5 mph WSW5.6 kmh WSW 5.8 mph9.3 kmh 30.43 in1030.5 mb - 0.00 in0.0 mm 0.00 in0.0 mm
12:00 PM 65.8°F18.8°C 31.8°F-0.1°C 28% 4.6 mph SE7.4 kmh SE 8.1 mph13.0 kmh 30.42 in1030.1 mb - 0.00 in0.0 mm 0.00 in0.0 mm
12:10 PM 66.1°F18.9°C 31.1°F-0.5°C 27% 4.6 mph W7.4 kmh W 6.9 mph11.1 kmh 30.42 in1030.1 mb - 0.00 in0.0 mm 0.00 in0.0 mm
12:20 PM 66.7°F19.3°C 30.7°F-0.7°C 26% 4.6 mph SE7.4 kmh SE 9.2 mph14.8 kmh 30.42 in1030.1 mb - 0.00 in0.0 mm 0.00 in0.0 mm
12:30 PM 66.5°F19.2°C 30.5°F-0.8°C 26% 4.6 mph WSW7.4 kmh WSW 8.1 mph13.0 kmh 30.41 in1029.8 mb - 0.00 in0.0 mm 0.00 in0.0 mm
12:40 PM 66.6°F19.2°C 29.7°F-1.3°C 25% 6.9 mph S11.1 kmh S 12.7 mph20.4 kmh 30.40 in1029.5 mb - 0.00 in0.0 mm 0.00 in0.0 mm
12:50 PM 66.9°F19.4°C 28.9°F-1.7°C 24% 4.6 mph ESE7.4 kmh ESE 6.9 mph11.1 kmh 30.40 in1029.5 mb - 0.00 in0.0 mm 0.00 in0.0 mm
01:00 PM 67.4°F19.7°C 31.3°F-0.4°C 26% 3.5 mph SE5.6 kmh SE 8.1 mph13.0 kmh 30.40 in1029.5 mb - 0.00 in0.0 mm 0.00 in0.0 mm
01:10 PM 67.6°F19.8°C 34.2°F1.2°C 29% 4.6 mph SE7.4 kmh SE 5.8 mph9.3 kmh 30.40 in1029.5 mb - 0.00 in0.0 mm 0.00 in0.0 mm
01:20 PM 67.8°F19.9°C 36.8°F2.7°C 32% 5.8 mph S9.3 kmh S 9.2 mph14.8 kmh 30.39 in1029.1 mb - 0.00 in0.0 mm 0.00 in0.0 mm
01:30 PM 67.4°F19.7°C 39.5°F4.2°C 36% 4.6 mph SE7.4 kmh SE 6.9 mph11.1 kmh 30.39 in1029.1 mb - 0.00 in0.0 mm 0.00 in0.0 mm
01:40 PM 67.5°F19.7°C 38.1°F3.4°C 34% 4.6 mph S7.4 kmh S 5.8 mph9.3 kmh 30.39 in1029.1 mb - 0.00 in0.0 mm 0.00 in0.0 mm
01:50 PM 67.6°F19.8°C 39.0°F3.9°C 35% 4.6 mph SE7.4 kmh SE 5.8 mph9.3 kmh 30.39 in1029.1 mb - 0.00 in0.0 mm 0.00 in0.0 mm
02:00 PM 67.8°F19.9°C 38.4°F3.6°C 34% 4.6 mph S7.4 kmh S 8.1 mph13.0 kmh 30.38 in1028.8 mb - 0.00 in0.0 mm 0.00 in0.0 mm
02:10 PM 68.0°F20.0°C 39.3°F4.1°C 35% 5.8 mph SE9.3 kmh SE 8.1 mph13.0 kmh 30.38 in1028.8 mb - 0.00 in0.0 mm 0.00 in0.0 mm
02:20 PM 68.3°F20.2°C 42.4°F5.8°C 39% 2.3 mph S3.7 kmh S 9.2 mph14.8 kmh 30.38 in1028.8 mb - 0.00 in0.0 mm 0.00 in0.0 mm
02:30 PM 68.3°F20.2°C 40.3°F4.6°C 36% 3.5 mph ESE5.6 kmh ESE 5.8 mph9.3 kmh 30.38 in1028.8 mb - 0.00 in0.0 mm 0.00 in0.0 mm
02:40 PM 67.9°F19.9°C 40.7°F4.8°C 37% 6.9 mph SSE11.1 kmh SSE 9.2 mph14.8 kmh 30.37 in1028.4 mb - 0.00 in0.0 mm 0.00 in0.0 mm
02:50 PM 68.1°F20.1°C 38.7°F3.7°C 34% 5.8 mph S9.3 kmh S 6.9 mph11.1 kmh 30.37 in1028.4 mb - 0.00 in0.0 mm 0.00 in0.0 mm
03:00 PM 67.5°F19.7°C 41.0°F5.0°C 38% 4.6 mph SE7.4 kmh SE 6.9 mph11.1 kmh 30.37 in1028.4 mb - 0.00 in0.0 mm 0.00 in0.0 mm
03:10 PM 66.2°F19.0°C 41.1°F5.1°C 40% 8.1 mph SE13.0 kmh SE 9.2 mph14.8 kmh 30.37 in1028.4 mb - 0.00 in0.0 mm 0.00 in0.0 mm
03:20 PM 65.7°F18.7°C 42.5°F5.8°C 43% 3.5 mph SE5.6 kmh SE 5.8 mph9.3 kmh 30.36 in1028.1 mb - 0.00 in0.0 mm 0.00 in0.0 mm
03:30 PM 64.8°F18.2°C 42.3°F5.7°C 44% 4.6 mph S7.4 kmh S 8.1 mph13.0 kmh 30.36 in1028.1 mb - 0.00 in0.0 mm 0.00 in0.0 mm
03:40 PM 64.5°F18.1°C 42.1°F5.6°C 44% 5.8 mph S9.3 kmh S 6.9 mph11.1 kmh 30.35 in1027.8 mb - 0.00 in0.0 mm 0.00 in0.0 mm
03:50 PM 65.6°F18.7°C 42.5°F5.8°C 43% 3.5 mph S5.6 kmh S 10.4 mph16.7 kmh 30.34 in1027.4 mb - 0.00 in0.0 mm 0.00 in0.0 mm
04:00 PM 64.0°F17.8°C 41.7°F5.4°C 44% 5.8 mph S9.3 kmh S 10.4 mph16.7 kmh 30.35 in1027.8 mb - 0.00 in0.0 mm 0.00 in0.0 mm
04:10 PM 62.6°F17.0°C 42.6°F5.9°C 48% 4.6 mph S7.4 kmh S 9.2 mph14.8 kmh 30.34 in1027.4 mb - 0.00 in0.0 mm 0.00 in0.0 mm
04:20 PM 62.4°F16.9°C 43.0°F6.1°C 49% 5.8 mph SE9.3 kmh SE 18.4 mph29.6 kmh 30.34 in1027.4 mb - 0.00 in0.0 mm 0.00 in0.0 mm
04:30 PM 64.1°F17.8°C 43.4°F6.3°C 47% 4.6 mph SE7.4 kmh SE 4.6 mph7.4 kmh 30.34 in1027.4 mb - 0.00 in0.0 mm 0.00 in0.0 mm
04:40 PM 64.4°F18.0°C 42.6°F5.9°C 45% 3.5 mph SE5.6 kmh SE 2.3 mph3.7 kmh 30.34 in1027.4 mb - 0.00 in0.0 mm 0.00 in0.0 mm
04:50 PM 63.3°F17.4°C 42.1°F5.6°C 46% 2.3 mph SW3.7 kmh SW 2.3 mph3.7 kmh 30.34 in1027.4 mb - 0.00 in0.0 mm 0.00 in0.0 mm
05:00 PM 63.1°F17.3°C 40.8°F4.9°C 44% 3.5 mph SE5.6 kmh SE 5.8 mph9.3 kmh 30.34 in1027.4 mb - 0.00 in0.0 mm 0.00 in0.0 mm
05:10 PM 63.7°F17.6°C 40.7°F4.8°C 43% 4.6 mph SSE7.4 kmh SSE 9.2 mph14.8 kmh 30.34 in1027.4 mb - 0.00 in0.0 mm 0.00 in0.0 mm
05:20 PM 62.8°F17.1°C 40.5°F4.7°C 44% 5.8 mph SE9.3 kmh SE 8.1 mph13.0 kmh 30.34 in1027.4 mb - 0.00 in0.0 mm 0.00 in0.0 mm
05:30 PM 62.0°F16.7°C 40.4°F4.7°C 45% 5.8 mph S9.3 kmh S 8.1 mph13.0 kmh 30.34 in1027.4 mb - 0.00 in0.0 mm 0.00 in0.0 mm
05:40 PM 61.6°F16.4°C 39.4°F4.1°C 44% 4.6 mph SE7.4 kmh SE 8.1 mph13.0 kmh 30.33 in1027.1 mb - 0.00 in0.0 mm 0.00 in0.0 mm
05:50 PM 60.8°F16.0°C 38.8°F3.8°C 44% 4.6 mph ESE7.4 kmh ESE 6.9 mph11.1 kmh 30.33 in1027.1 mb - 0.00 in0.0 mm 0.00 in0.0 mm
06:00 PM 60.0°F15.6°C 39.2°F4.0°C 46% 3.5 mph SSE5.6 kmh SSE 5.8 mph9.3 kmh 30.33 in1027.1 mb - 0.00 in0.0 mm 0.00 in0.0 mm
06:10 PM 59.2°F15.1°C 39.6°F4.2°C 48% 3.5 mph SE5.6 kmh SE 2.3 mph3.7 kmh 30.32 in1026.8 mb - 0.00 in0.0 mm 0.00 in0.0 mm
06:20 PM 58.4°F14.7°C 39.3°F4.1°C 49% 3.5 mph SE5.6 kmh SE 5.8 mph9.3 kmh 30.32 in1026.8 mb - 0.00 in0.0 mm 0.00 in0.0 mm
06:30 PM 57.9°F14.4°C 39.4°F4.1°C 50% 2.3 mph S3.7 kmh S 8.1 mph13.0 kmh 30.32 in1026.8 mb - 0.00 in0.0 mm 0.00 in0.0 mm
06:40 PM 57.5°F14.2°C 39.5°F4.2°C 51% 3.5 mph SE5.6 kmh SE 2.3 mph3.7 kmh 30.32 in1026.8 mb - 0.00 in0.0 mm 0.00 in0.0 mm
06:50 PM 57.0°F13.9°C 39.5°F4.2°C 52% 3.5 mph SE5.6 kmh SE 2.3 mph3.7 kmh 30.31 in1026.4 mb - 0.00 in0.0 mm 0.00 in0.0 mm
07:00 PM 56.5°F13.6°C 40.5°F4.7°C 55% 3.5 mph SSE5.6 kmh SSE 2.3 mph3.7 kmh 30.31 in1026.4 mb - 0.00 in0.0 mm 0.00 in0.0 mm
07:10 PM 56.0°F13.3°C 41.0°F5.0°C 57% 2.3 mph ESE3.7 kmh ESE 2.3 mph3.7 kmh 30.31 in1026.4 mb - 0.00 in0.0 mm 0.00 in0.0 mm
07:20 PM 55.4°F13.0°C 41.3°F5.2°C 59% 3.5 mph SE5.6 kmh SE 5.8 mph9.3 kmh 30.30 in1026.1 mb - 0.00 in0.0 mm 0.00 in0.0 mm
07:30 PM 55.0°F12.8°C 41.8°F5.4°C 61% 3.5 mph SSE5.6 kmh SSE 5.8 mph9.3 kmh 30.30 in1026.1 mb - 0.00 in0.0 mm 0.00 in0.0 mm
07:40 PM 54.6°F12.6°C 41.4°F5.2°C 61% 2.3 mph SE3.7 kmh SE 2.3 mph3.7 kmh 30.30 in1026.1 mb - 0.00 in0.0 mm 0.00 in0.0 mm
07:50 PM 54.2°F12.3°C 41.4°F5.2°C 62% 2.3 mph SSE3.7 kmh SSE 4.6 mph7.4 kmh 30.30 in1026.1 mb - 0.00 in0.0 mm 0.00 in0.0 mm
08:00 PM 54.0°F12.2°C 41.2°F5.1°C 62% 2.3 mph ESE3.7 kmh ESE 2.3 mph3.7 kmh 30.30 in1026.1 mb - 0.00 in0.0 mm 0.00 in0.0 mm
08:10 PM 53.6°F12.0°C 41.3°F5.2°C 63% 2.3 mph ESE3.7 kmh ESE 2.3 mph3.7 kmh 30.30 in1026.1 mb - 0.00 in0.0 mm 0.00 in0.0 mm
08:20 PM 53.5°F11.9°C 40.8°F4.9°C 62% 2.3 mph SSE3.7 kmh SSE 2.3 mph3.7 kmh 30.30 in1026.1 mb - 0.00 in0.0 mm 0.00 in0.0 mm
08:30 PM 53.6°F12.0°C 40.9°F4.9°C 62% 2.3 mph S3.7 kmh S 4.6 mph7.4 kmh 30.30 in1026.1 mb - 0.00 in0.0 mm 0.00 in0.0 mm
08:40 PM 53.3°F11.8°C 40.6°F4.8°C 62% 1.2 mph ESE1.9 kmh ESE 2.3 mph3.7 kmh 30.30 in1026.1 mb - 0.00 in0.0 mm 0.00 in0.0 mm
08:50 PM 53.1°F11.7°C 40.5°F4.7°C 62% 2.3 mph S3.7 kmh S 2.3 mph3.7 kmh 30.31 in1026.4 mb - 0.00 in0.0 mm 0.00 in0.0 mm
09:00 PM 52.9°F11.6°C 38.5°F3.6°C 58% 2.3 mph SE3.7 kmh SE 2.3 mph3.7 kmh 30.31 in1026.4 mb - 0.00 in0.0 mm 0.00 in0.0 mm
09:10 PM 52.8°F11.6°C 38.5°F3.6°C 58% 4.6 mph E7.4 kmh E 5.8 mph9.3 kmh 30.31 in1026.4 mb - 0.00 in0.0 mm 0.00 in0.0 mm
09:20 PM 52.5°F11.4°C 40.2°F4.6°C 63% 4.6 mph SSE7.4 kmh SSE 5.8 mph9.3 kmh 30.31 in1026.4 mb - 0.00 in0.0 mm 0.00 in0.0 mm
09:30 PM 52.2°F11.2°C 42.7°F5.9°C 70% 4.6 mph S7.4 kmh S 8.1 mph13.0 kmh 30.31 in1026.4 mb - 0.00 in0.0 mm 0.00 in0.0 mm
09:40 PM 51.8°F11.0°C 42.7°F5.9°C 71% 2.3 mph SE3.7 kmh SE 2.3 mph3.7 kmh 30.31 in1026.4 mb - 0.00 in0.0 mm 0.00 in0.0 mm
09:50 PM 51.6°F10.9°C 42.8°F6.0°C 72% 1.2 mph SE1.9 kmh SE 2.3 mph3.7 kmh 30.31 in1026.4 mb - 0.00 in0.0 mm 0.00 in0.0 mm
10:00 PM 51.3°F10.7°C 42.5°F5.8°C 72% 3.5 mph SE5.6 kmh SE 6.9 mph11.1 kmh 30.31 in1026.4 mb - 0.00 in0.0 mm 0.00 in0.0 mm
10:10 PM 51.0°F10.6°C 41.2°F5.1°C 69% 2.3 mph E3.7 kmh E 2.3 mph3.7 kmh 30.30 in1026.1 mb - 0.00 in0.0 mm 0.00 in0.0 mm
10:20 PM 51.0°F10.6°C 40.8°F4.9°C 68% 2.3 mph SE3.7 kmh SE 4.6 mph7.4 kmh 30.30 in1026.1 mb - 0.00 in0.0 mm 0.00 in0.0 mm
10:30 PM 51.0°F10.6°C 39.6°F4.2°C 65% 3.5 mph S5.6 kmh S 2.3 mph3.7 kmh 30.30 in1026.1 mb - 0.00 in0.0 mm 0.00 in0.0 mm
10:40 PM 51.2°F10.7°C 39.8°F4.3°C 65% 3.5 mph S5.6 kmh S 5.8 mph9.3 kmh 30.30 in1026.1 mb - 0.00 in0.0 mm 0.00 in0.0 mm
10:50 PM 51.2°F10.7°C 40.2°F4.6°C 66% 2.3 mph SE3.7 kmh SE 2.3 mph3.7 kmh 30.30 in1026.1 mb - 0.00 in0.0 mm 0.00 in0.0 mm
11:00 PM 51.0°F10.6°C 39.6°F4.2°C 65% Calm Calm -- 30.29 in1025.7 mb - 0.00 in0.0 mm 0.00 in0.0 mm
11:10 PM 50.9°F10.5°C 39.9°F4.4°C 66% 1.2 mph SSE1.9 kmh SSE 4.6 mph7.4 kmh 30.29 in1025.7 mb - 0.00 in0.0 mm 0.00 in0.0 mm
11:20 PM 51.0°F10.6°C 40.4°F4.7°C 67% Calm Calm -- 30.29 in1025.7 mb - 0.00 in0.0 mm 0.00 in0.0 mm
11:30 PM 51.0°F10.6°C 40.8°F4.9°C 68% 1.2 mph SW1.9 kmh SW 1.2 mph1.9 kmh 30.28 in1025.4 mb - 0.00 in0.0 mm 0.00 in0.0 mm
11:40 PM 51.0°F10.6°C 40.0°F4.4°C 66% 2.3 mph E3.7 kmh E 2.3 mph3.7 kmh 30.28 in1025.4 mb - 0.00 in0.0 mm 0.00 in0.0 mm
11:50 PM 50.9°F10.5°C 40.8°F4.9°C 68% Calm Calm -- 30.28 in1025.4 mb - 0.00 in0.0 mm 0.00 in0.0 mm